Time;durP1;ratioP1;P1;durP2;ratioP2;P2;SDS_P1;SDS_P2;PMS_P1;PMS_P2;Temp;Humidity;BMP_temperature;BMP_pressure;BME280_temperature;BME280_humidity;BME280_pressure;Samples;Min_cycle;Max_cycle;Signal;HPM_P1;HPM_P2
2023/05/30 00:02:31;;;;;;;10.90;8.35;;;16.10;99.90;;;;;;5022628;28;20065;-45
2023/05/30 00:05:09;;;;;;;11.13;8.35;;;16.00;99.90;;;;;;5042662;28;20049;-44
2023/05/30 00:07:39;;;;;;;11.37;8.00;;;16.00;99.90;;;;;;5000193;28;20045;-46
2023/05/30 00:10:10;;;;;;;11.60;7.93;;;16.00;99.90;;;;;;5027240;28;20048;-44
2023/05/30 00:12:41;;;;;;;8.07;7.20;;;15.90;99.90;;;;;;5027762;28;20057;-44
2023/05/30 00:15:13;;;;;;;10.82;8.00;;;15.90;99.90;;;;;;5028561;28;20055;-44
2023/05/30 00:17:54;;;;;;;10.63;7.93;;;15.90;99.90;;;;;;5033329;28;20395;-44
2023/05/30 00:20:29;;;;;;;10.13;8.68;;;15.80;99.90;;;;;;5021621;28;20049;-46
2023/05/30 00:23:04;;;;;;;10.27;8.48;;;15.80;99.90;;;;;;5029101;28;20056;-41
2023/05/30 00:25:45;;;;;;;13.10;9.00;;;15.80;99.90;;;;;;5011780;28;20560;-44
2023/05/30 00:28:20;;;;;;;10.68;8.30;;;15.70;99.90;;;;;;5029075;28;20060;-44
2023/05/30 00:30:50;;;;;;;11.38;8.23;;;15.70;99.90;;;;;;5043512;28;20041;-43
2023/05/30 00:33:21;;;;;;;10.63;7.70;;;15.60;99.90;;;;;;5029165;28;20045;-41
2023/05/30 00:35:52;;;;;;;10.50;8.30;;;15.60;99.90;;;;;;5031675;28;20064;-44
2023/05/30 00:38:22;;;;;;;10.93;8.20;;;15.50;99.90;;;;;;5026672;28;20053;-43
2023/05/30 00:40:52;;;;;;;;;;;15.50;99.90;;;;;;5044921;28;20178;-45
2023/05/30 00:43:24;;;;;;;11.00;8.15;;;15.50;99.90;;;;;;5026499;28;20004;-44
2023/05/30 00:45:58;;;;;;;12.63;7.93;;;15.50;99.90;;;;;;5027520;28;20073;-43
2023/05/30 00:48:28;;;;;;;11.48;7.85;;;15.40;99.90;;;;;;5027481;28;20045;-44
2023/05/30 00:50:58;;;;;;;10.35;8.05;;;15.40;99.90;;;;;;5036283;28;20103;-45
2023/05/30 00:53:28;;;;;;;11.07;7.93;;;15.40;99.90;;;;;;5026440;28;20049;-44
2023/05/30 00:56:09;;;;;;;9.52;7.30;;;15.40;99.90;;;;;;5027461;28;20060;-43
2023/05/30 00:58:42;;;;;;;9.35;7.80;;;15.40;99.90;;;;;;5029623;28;20099;-45
2023/05/30 01:01:13;;;;;;;9.75;7.65;;;15.30;99.90;;;;;;5026949;28;20429;-44
2023/05/30 01:03:47;;;;;;;11.32;8.07;;;15.30;99.90;;;;;;5027979;28;20065;-42
2023/05/30 01:06:20;;;;;;;9.23;7.60;;;15.30;99.90;;;;;;5026046;28;20426;-46
2023/05/30 01:08:48;;;;;;;8.98;7.45;;;15.30;99.90;;;;;;5027861;28;20069;-39
2023/05/30 01:11:46;;;;;;;9.98;8.30;;;15.30;99.90;;;;;;5022857;28;20044;-42
2023/05/30 01:14:35;;;;;;;11.40;8.10;;;15.20;99.90;;;;;;5024375;28;20120;-43
2023/05/30 01:17:27;;;;;;;10.02;7.80;;;15.20;99.90;;;;;;5027289;28;20041;-43
2023/05/30 01:20:07;;;;;;;9.38;7.90;;;15.10;99.90;;;;;;5021435;28;20045;-43
2023/05/30 01:23:00;;;;;;;13.20;9.27;;;15.10;99.90;;;;;;5035602;28;20037;-45
2023/05/30 01:26:09;;;;;;;145.25;44.53;;;15.10;99.90;;;;;;5030338;28;20049;-43
2023/05/30 01:28:45;;;;;;;90.47;30.60;;;15.00;99.90;;;;;;5028024;28;20045;-43
2023/05/30 01:31:15;;;;;;;61.53;23.05;;;15.00;99.90;;;;;;5027603;28;20383;-42
2023/05/30 01:33:47;;;;;;;26.75;13.60;;;14.90;99.90;;;;;;5021829;28;20553;-41
2023/05/30 01:36:16;;;;;;;22.15;11.93;;;14.90;99.90;;;;;;5027535;28;20045;-41
2023/05/30 01:38:44;;;;;;;17.42;9.85;;;14.90;99.90;;;;;;5027618;28;20120;-42
2023/05/30 01:41:25;;;;;;;14.40;9.32;;;14.80;99.90;;;;;;5028782;28;20033;-40
2023/05/30 01:44:03;;;;;;;16.10;8.85;;;14.80;99.90;;;;;;5027659;28;20421;-44
2023/05/30 01:46:41;;;;;;;13.98;8.50;;;14.80;99.90;;;;;;5026020;28;20073;-40
2023/05/30 01:49:46;;;;;;;11.88;8.65;;;14.70;99.90;;;;;;5028541;28;20052;-42
2023/05/30 01:52:17;;;;;;;10.88;8.68;;;14.70;99.90;;;;;;5006024;28;20121;-43
2023/05/30 01:54:51;;;;;;;10.03;8.90;;;14.60;99.90;;;;;;5036536;28;20132;-43
2023/05/30 01:57:20;;;;;;;11.65;7.93;;;14.60;99.90;;;;;;5034690;28;20056;-43
2023/05/30 01:59:48;;;;;;;13.40;8.52;;;14.60;99.90;;;;;;5035666;28;20042;-41
2023/05/30 02:02:16;;;;;;;10.18;8.27;;;14.50;99.90;;;;;;5036202;28;20466;-42
2023/05/30 02:04:43;;;;;;;13.25;7.95;;;14.50;99.90;;;;;;5040547;28;20041;-42
2023/05/30 02:07:11;;;;;;;12.65;8.23;;;14.40;99.90;;;;;;5040824;28;20126;-43
2023/05/30 02:09:41;;;;;;;10.10;8.02;;;14.40;99.90;;;;;;5033309;28;20128;-39
2023/05/30 02:12:09;;;;;;;10.70;8.15;;;14.30;99.90;;;;;;5033094;28;20052;-42
2023/05/30 02:14:37;;;;;;;11.02;8.00;;;14.30;99.90;;;;;;5034612;28;20112;-41
2023/05/30 02:17:05;;;;;;;12.82;8.48;;;14.30;99.90;;;;;;5031805;28;20037;-38
2023/05/30 02:19:33;;;;;;;10.80;7.65;;;14.30;99.90;;;;;;5035015;28;20422;-40
2023/05/30 02:22:00;;;;;;;13.05;8.35;;;14.20;99.90;;;;;;5035020;28;20049;-39
2023/05/30 02:24:27;;;;;;;10.63;7.97;;;14.20;99.90;;;;;;5037732;28;20049;-43
2023/05/30 02:26:55;;;;;;;11.77;8.50;;;14.20;99.90;;;;;;5033908;28;20107;-38
2023/05/30 02:29:22;;;;;;;15.18;8.43;;;14.20;99.90;;;;;;5038286;28;20041;-40
2023/05/30 02:31:50;;;;;;;8.73;7.82;;;14.10;99.90;;;;;;5046445;28;20041;-38
2023/05/30 02:34:18;;;;;;;12.60;8.20;;;14.10;99.90;;;;;;5055952;28;20041;-41
2023/05/30 02:36:45;;;;;;;10.63;7.63;;;14.10;99.90;;;;;;5044906;28;20045;-41
2023/05/30 02:39:12;;;;;;;11.82;8.77;;;14.10;99.90;;;;;;5053885;28;20107;-45
2023/05/30 02:41:42;;;;;;;9.75;8.07;;;14.00;99.90;;;;;;5065838;28;20044;-45
2023/05/30 02:44:09;;;;;;;12.85;8.55;;;14.00;99.90;;;;;;5055124;28;20115;-40
2023/05/30 02:46:38;;;;;;;9.23;7.78;;;14.00;99.90;;;;;;5060616;28;20041;-40
2023/05/30 02:49:06;;;;;;;12.25;8.68;;;14.00;99.90;;;;;;5055739;28;20041;-41
2023/05/30 02:51:34;;;;;;;12.80;8.85;;;14.00;99.90;;;;;;5045088;28;20489;-41
2023/05/30 02:54:04;;;;;;;13.63;8.90;;;13.90;99.90;;;;;;5051921;28;20049;-39
2023/05/30 02:56:49;;;;;;;12.25;8.90;;;13.90;99.90;;;;;;5060861;28;20287;-42
2023/05/30 02:59:30;;;;;;;11.13;8.83;;;13.90;99.90;;;;;;5044850;28;20528;-41
2023/05/30 03:02:06;;;;;;;11.30;8.43;;;13.80;99.90;;;;;;5044669;28;20037;-42
2023/05/30 03:04:33;;;;;;;11.20;8.80;;;13.70;99.90;;;;;;5061831;28;20033;-41
2023/05/30 03:07:01;;;;;;;10.85;8.50;;;13.80;99.90;;;;;;5056981;28;20143;-39
2023/05/30 03:09:31;;;;;;;12.50;8.43;;;13.70;99.90;;;;;;5062691;28;20375;-42
2023/05/30 03:11:58;;;;;;;12.25;7.88;;;13.70;99.90;;;;;;5054347;28;20053;-40
2023/05/30 03:14:26;;;;;;;13.48;8.20;;;13.70;99.90;;;;;;5059796;28;20076;-42
2023/05/30 03:16:56;;;;;;;11.93;8.35;;;13.70;99.90;;;;;;5057778;28;20063;-40
2023/05/30 03:19:23;;;;;;;10.00;8.02;;;13.60;99.90;;;;;;5059421;28;20452;-41
2023/05/30 03:21:54;;;;;;;11.23;7.90;;;13.60;99.90;;;;;;5053465;28;20076;-45
2023/05/30 03:24:22;;;;;;;10.65;8.30;;;13.70;99.90;;;;;;5046023;28;20064;-42
2023/05/30 03:26:50;;;;;;;13.80;8.20;;;13.60;99.90;;;;;;5057076;28;20049;-42
2023/05/30 03:29:18;;;;;;;14.60;8.48;;;13.70;99.90;;;;;;5051824;28;20064;-43
2023/05/30 03:31:46;;;;;;;13.50;8.25;;;13.70;99.90;;;;;;5035926;28;20072;-45
2023/05/30 03:34:14;;;;;;;9.68;7.88;;;13.70;99.90;;;;;;5050773;28;20036;-41
2023/05/30 03:36:43;;;;;;;14.73;8.63;;;13.70;99.90;;;;;;5037272;28;20041;-44
2023/05/30 03:39:12;;;;;;;10.05;7.65;;;13.70;99.90;;;;;;5055970;28;20080;-44
2023/05/30 03:41:40;;;;;;;14.00;7.95;;;13.80;99.90;;;;;;5049058;28;20041;-42
2023/05/30 03:44:07;;;;;;;10.63;8.00;;;13.80;99.90;;;;;;5041746;28;20041;-43
2023/05/30 03:46:35;;;;;;;10.13;7.63;;;13.90;99.90;;;;;;5050588;28;20036;-45
2023/05/30 03:49:02;;;;;;;11.30;7.82;;;13.90;99.90;;;;;;5014798;28;20049;-44
2023/05/30 03:51:29;;;;;;;12.60;8.15;;;13.90;99.90;;;;;;5050421;28;20041;-40
2023/05/30 03:53:57;;;;;;;9.65;7.63;;;13.90;99.90;;;;;;5050615;28;20067;-43
2023/05/30 03:56:25;;;;;;;13.57;8.15;;;14.00;99.90;;;;;;5041643;28;20325;-41
2023/05/30 03:58:53;;;;;;;10.15;7.60;;;14.10;99.90;;;;;;5051700;28;20128;-43
2023/05/30 04:01:20;;;;;;;10.82;8.00;;;14.00;99.90;;;;;;5039609;28;20034;-44
2023/05/30 04:03:47;;;;;;;12.45;7.90;;;14.10;99.90;;;;;;5051273;28;20078;-40
2023/05/30 04:06:15;;;;;;;14.00;8.30;;;14.10;99.90;;;;;;5050563;28;20072;-43
2023/05/30 04:08:42;;;;;;;10.55;8.05;;;14.10;99.90;;;;;;5045756;28;20560;-44
2023/05/30 04:11:10;;;;;;;10.57;8.00;;;14.10;99.90;;;;;;5048957;28;20414;-43
2023/05/30 04:13:37;;;;;;;11.05;7.13;;;14.20;99.90;;;;;;5039685;28;20060;-45
2023/05/30 04:16:04;;;;;;;13.70;8.45;;;14.20;99.90;;;;;;5049313;28;20110;-43
2023/05/30 04:18:32;;;;;;;13.02;8.73;;;14.20;99.90;;;;;;5038300;28;20124;-43
2023/05/30 04:20:59;;;;;;;9.50;7.93;;;14.30;99.90;;;;;;5049870;28;20132;-44
2023/05/30 04:23:27;;;;;;;10.63;8.00;;;14.30;99.90;;;;;;5042680;28;20157;-43
2023/05/30 04:25:57;;;;;;;11.40;8.15;;;14.40;99.90;;;;;;5047263;28;20501;-45
2023/05/30 04:28:27;;;;;;;11.00;9.02;;;14.40;99.90;;;;;;5049698;28;20124;-44
2023/05/30 04:30:56;;;;;;;14.07;8.80;;;14.50;99.90;;;;;;5036805;28;20055;-43
2023/05/30 04:33:45;;;;;;;10.57;8.60;;;14.50;99.90;;;;;;5025524;28;20198;-41
2023/05/30 04:36:18;;;;;;;9.95;8.35;;;14.50;99.90;;;;;;5044631;28;20047;-45
2023/05/30 04:38:49;;;;;;;13.68;8.23;;;14.60;99.90;;;;;;5042203;28;20048;-43
2023/05/30 04:41:21;;;;;;;12.90;8.10;;;14.70;99.90;;;;;;5050704;28;21366;-43
2023/05/30 04:43:54;;;;;;;11.25;8.70;;;14.80;99.90;;;;;;5038954;28;20033;-43
2023/05/30 04:46:23;;;;;;;12.50;8.35;;;14.90;99.90;;;;;;5044957;28;20061;-43
2023/05/30 04:48:53;;;;;;;13.68;8.40;;;15.00;99.90;;;;;;5040609;28;20041;-43
2023/05/30 04:51:21;;;;;;;10.75;8.52;;;15.10;99.90;;;;;;5033624;28;20045;-43
2023/05/30 04:53:50;;;;;;;13.27;8.07;;;15.10;99.90;;;;;;5035973;28;20454;-44
2023/05/30 04:56:21;;;;;;;10.52;7.88;;;15.20;99.90;;;;;;5038643;28;20057;-44
2023/05/30 04:58:51;;;;;;;10.77;8.05;;;15.20;99.90;;;;;;5038505;28;20044;-44
2023/05/30 05:01:20;;;;;;;10.52;8.00;;;15.30;99.90;;;;;;5034995;28;20132;-44
2023/05/30 05:03:49;;;;;;;12.32;8.55;;;15.40;99.90;;;;;;5048305;28;20109;-44
2023/05/30 05:06:16;;;;;;;12.05;7.70;;;15.50;99.90;;;;;;5028402;28;20041;-42
2023/05/30 05:08:44;;;;;;;10.15;8.32;;;15.60;99.90;;;;;;5029820;28;20057;-48
2023/05/30 05:11:11;;;;;;;9.10;7.78;;;15.60;99.90;;;;;;5029380;28;20128;-44
2023/05/30 05:13:38;;;;;;;9.13;8.13;;;15.70;99.90;;;;;;5028765;28;20102;-41
2023/05/30 05:16:06;;;;;;;9.25;8.00;;;15.80;99.90;;;;;;5031632;28;20048;-41
2023/05/30 05:18:33;;;;;;;9.13;7.70;;;15.90;99.90;;;;;;5031655;28;20056;-45
2023/05/30 05:21:01;;;;;;;12.23;7.88;;;16.10;99.90;;;;;;5029859;28;20061;-42
2023/05/30 05:23:29;;;;;;;10.88;7.70;;;16.20;99.90;;;;;;5029741;28;20056;-44
2023/05/30 05:25:56;;;;;;;13.43;8.40;;;16.30;99.90;;;;;;5037350;28;20510;-43
2023/05/30 05:28:24;;;;;;;12.63;8.07;;;16.20;99.90;;;;;;5021447;28;20053;-44
2023/05/30 05:30:52;;;;;;;11.18;8.27;;;16.30;99.90;;;;;;5024939;28;20108;-44
2023/05/30 05:33:20;;;;;;;10.00;7.75;;;16.40;99.90;;;;;;5031346;28;20107;-46
2023/05/30 05:35:48;;;;;;;10.43;8.10;;;16.60;99.90;;;;;;5034018;28;20251;-44
2023/05/30 05:38:16;;;;;;;12.82;8.20;;;16.70;99.90;;;;;;5030276;28;20136;-42
2023/05/30 05:40:44;;;;;;;12.73;8.63;;;16.80;99.90;;;;;;5036058;28;20119;-40
2023/05/30 05:43:11;;;;;;;12.45;8.32;;;16.80;99.90;;;;;;5035850;28;20475;-43
2023/05/30 05:45:39;;;;;;;8.00;7.22;;;16.80;99.90;;;;;;5035598;28;20037;-43
2023/05/30 05:48:06;;;;;;;12.68;8.15;;;16.50;99.90;;;;;;5027776;28;20129;-43
2023/05/30 05:50:34;;;;;;;9.85;7.35;;;16.60;99.90;;;;;;5030982;28;20045;-43
2023/05/30 05:53:02;;;;;;;13.10;7.93;;;16.70;99.90;;;;;;5029870;28;20076;-41
2023/05/30 05:55:30;;;;;;;9.18;7.20;;;16.80;99.90;;;;;;5030443;28;20069;-45
2023/05/30 05:57:57;;;;;;;11.63;7.45;;;16.70;99.90;;;;;;5024689;28;20041;-42
2023/05/30 06:00:25;;;;;;;12.25;7.80;;;16.80;99.90;;;;;;5020369;28;20089;-45
2023/05/30 06:02:52;;;;;;;12.15;7.93;;;16.90;99.90;;;;;;5027648;28;20116;-43
2023/05/30 06:05:20;;;;;;;9.82;7.63;;;17.10;99.90;;;;;;5024672;28;20069;-43
2023/05/30 06:07:47;;;;;;;9.07;7.68;;;17.20;99.90;;;;;;5027158;28;20394;-43
2023/05/30 06:10:15;;;;;;;13.35;7.75;;;17.40;99.90;;;;;;5021705;28;20045;-48
2023/05/30 06:12:42;;;;;;;10.68;7.80;;;17.50;99.90;;;;;;5027635;28;20117;-48
2023/05/30 06:15:12;;;;;;;12.30;7.70;;;17.70;99.90;;;;;;5013248;28;20385;-42
2023/05/30 06:17:39;;;;;;;16.08;8.18;;;17.80;99.90;;;;;;5027008;28;20072;-44
2023/05/30 06:20:08;;;;;;;11.27;8.18;;;18.10;99.90;;;;;;5022487;28;20075;-48
2023/05/30 06:22:35;;;;;;;13.02;8.02;;;18.20;99.90;;;;;;5021535;28;20068;-45
2023/05/30 06:25:03;;;;;;;11.90;7.95;;;18.30;99.90;;;;;;5023750;28;20140;-43
2023/05/30 06:52:09;;;;;;;12.13;7.15;;;19.90;99.90;;;;;;5059768;28;20433;-41
2023/05/30 06:54:37;;;;;;;13.75;7.35;;;20.00;99.90;;;;;;5054316;28;20836;-41
2023/05/30 06:57:05;;;;;;;11.45;7.07;;;20.10;99.90;;;;;;5048997;28;20134;-41
2023/05/30 06:59:34;;;;;;;11.85;7.30;;;20.10;99.90;;;;;;5057871;28;20053;-41
2023/05/30 07:02:04;;;;;;;8.25;7.10;;;20.30;99.90;;;;;;5043085;28;20049;-40
2023/05/30 07:04:31;;;;;;;12.13;6.97;;;20.30;99.90;;;;;;5058279;28;20128;-41
2023/05/30 07:06:59;;;;;;;10.15;7.70;;;20.40;99.90;;;;;;5055444;28;20057;-43
2023/05/30 07:09:26;;;;;;;11.57;7.35;;;20.40;99.90;;;;;;5044881;28;20048;-44
2023/05/30 07:11:54;;;;;;;16.20;10.82;;;20.50;99.90;;;;;;5042436;28;20044;-40
2023/05/30 07:14:21;;;;;;;12.70;7.78;;;20.50;99.90;;;;;;5047631;28;20052;-42
2023/05/30 07:16:48;;;;;;;10.00;7.70;;;20.60;99.90;;;;;;5044159;28;20097;-43
2023/05/30 07:19:16;;;;;;;13.40;7.43;;;20.60;99.90;;;;;;5048196;28;20158;-43
2023/05/30 07:21:43;;;;;;;9.18;7.88;;;20.60;99.90;;;;;;5056359;28;20057;-43
2023/05/30 07:24:11;;;;;;;7.97;7.15;;;20.60;99.90;;;;;;5046122;28;20129;-43
2023/05/30 07:26:38;;;;;;;9.98;7.05;;;20.50;99.90;;;;;;5050566;28;20046;-42
2023/05/30 07:29:05;;;;;;;11.27;6.80;;;20.50;99.90;;;;;;5049646;28;20071;-40
2023/05/30 07:31:33;;;;;;;8.98;7.05;;;20.50;99.90;;;;;;5052974;28;20041;-42
2023/05/30 07:34:00;;;;;;;10.35;7.25;;;20.60;99.90;;;;;;5056236;28;20041;-44
2023/05/30 07:36:27;;;;;;;11.23;7.70;;;20.70;99.90;;;;;;5057321;28;20091;-43
2023/05/30 07:38:55;;;;;;;10.95;7.95;;;20.80;99.90;;;;;;5055163;28;20525;-42
2023/05/30 07:41:22;;;;;;;9.13;6.97;;;20.80;99.90;;;;;;5050725;28;20060;-42
2023/05/30 07:43:49;;;;;;;9.65;6.82;;;20.80;99.90;;;;;;5049715;28;20464;-42
2023/05/30 07:46:18;;;;;;;11.18;7.30;;;20.90;99.90;;;;;;5049127;28;20045;-42
2023/05/30 07:48:45;;;;;;;8.77;6.93;;;21.00;99.90;;;;;;5046882;28;20049;-42
2023/05/30 07:51:12;;;;;;;9.05;6.43;;;20.90;99.90;;;;;;5045951;28;20045;-42
2023/05/30 07:53:40;;;;;;;9.18;6.43;;;20.90;99.90;;;;;;5048675;28;20048;-41
2023/05/30 07:56:07;;;;;;;10.00;6.68;;;20.80;99.90;;;;;;5048008;28;20095;-40
2023/05/30 07:58:34;;;;;;;10.75;8.18;;;20.80;99.90;;;;;;5043687;28;20478;-40
2023/05/30 08:01:02;;;;;;;8.25;7.07;;;20.90;99.90;;;;;;5042351;28;20431;-42
2023/05/30 08:03:29;;;;;;;8.55;7.28;;;21.00;99.90;;;;;;5033003;28;20048;-40
2023/05/30 08:05:57;;;;;;;14.63;7.57;;;20.90;99.90;;;;;;5049474;28;20053;-42
2023/05/30 08:08:25;;;;;;;11.25;7.90;;;20.90;99.90;;;;;;5053708;28;20041;-41
2023/05/30 08:10:52;;;;;;;10.82;5.97;;;21.00;99.90;;;;;;5025214;28;20037;-41
2023/05/30 08:13:24;;;;;;;10.88;7.18;;;21.10;99.60;;;;;;5047106;28;20052;-41
2023/05/30 08:15:51;;;;;;;8.82;7.45;;;21.10;97.30;;;;;;5020529;28;20128;-43
2023/05/30 08:18:21;;;;;;;11.15;8.20;;;21.10;96.00;;;;;;5039798;28;20501;-42
2023/05/30 08:20:54;;;;;;;11.40;7.35;;;21.20;96.40;;;;;;5042739;28;20056;-42
2023/05/30 08:23:22;;;;;;;10.95;7.40;;;21.20;96.40;;;;;;5027900;28;20510;-40
2023/05/30 08:25:50;;;;;;;9.68;7.43;;;21.20;96.20;;;;;;5030401;28;20099;-38
2023/05/30 08:28:18;;;;;;;12.30;8.10;;;21.20;96.30;;;;;;5047500;28;20548;-36
2023/05/30 08:30:48;;;;;;;11.07;7.60;;;21.30;96.30;;;;;;5034083;28;20037;-40
2023/05/30 08:33:21;;;;;;;10.17;7.70;;;21.30;96.00;;;;;;5049481;28;20044;-40
2023/05/30 08:35:48;;;;;;;11.38;7.28;;;21.20;95.50;;;;;;5058201;28;20314;-39
2023/05/30 08:38:15;;;;;;;10.50;7.35;;;21.10;95.80;;;;;;5051899;28;20069;-43
2023/05/30 08:40:45;;;;;;;10.55;7.30;;;21.10;95.20;;;;;;5044714;28;20413;-40
2023/05/30 08:43:12;;;;;;;12.13;6.82;;;21.10;95.20;;;;;;5040138;28;20061;-40
2023/05/30 08:45:40;;;;;;;11.38;7.20;;;21.00;95.00;;;;;;5039808;28;20079;-39
2023/05/30 08:48:11;;;;;;;9.98;6.88;;;21.00;95.10;;;;;;5050040;28;20091;-37
2023/05/30 08:50:40;;;;;;;11.30;7.10;;;21.10;95.10;;;;;;5043626;28;20059;-38
2023/05/30 08:53:11;;;;;;;10.68;6.95;;;21.20;96.00;;;;;;5027788;28;20046;-40
2023/05/30 08:55:54;;;;;;;8.60;6.88;;;21.20;96.20;;;;;;5051476;28;20051;-40
2023/05/30 08:58:29;;;;;;;8.37;7.13;;;21.30;96.50;;;;;;5046790;28;20049;-39
2023/05/30 09:00:57;;;;;;;9.68;7.13;;;21.20;96.90;;;;;;5041996;28;20424;-39
2023/05/30 09:03:28;;;;;;;18.15;12.30;;;21.30;96.90;;;;;;5050996;28;20041;-38
2023/05/30 09:05:56;;;;;;;10.13;7.07;;;21.30;96.20;;;;;;5046566;28;20476;-39
2023/05/30 09:08:25;;;;;;;9.50;7.00;;;21.40;95.60;;;;;;5053188;28;20120;-38
2023/05/30 09:10:58;;;;;;;16.27;9.77;;;21.30;95.50;;;;;;5043044;28;20079;-39
2023/05/30 09:13:25;;;;;;;9.15;7.43;;;21.50;96.10;;;;;;5050619;28;20064;-39
2023/05/30 09:15:53;;;;;;;13.52;8.02;;;21.60;95.30;;;;;;5059472;28;20072;-40
2023/05/30 09:18:20;;;;;;;11.20;7.22;;;21.60;94.50;;;;;;5042717;28;20091;-40
2023/05/30 09:20:49;;;;;;;9.07;7.22;;;21.60;94.30;;;;;;5046731;28;20053;-37
2023/05/30 09:23:17;;;;;;;9.52;7.57;;;21.60;94.00;;;;;;5029176;28;20049;-39
2023/05/30 09:25:46;;;;;;;15.20;7.20;;;21.60;93.80;;;;;;5045522;28;20061;-39
2023/05/30 09:28:14;;;;;;;8.07;7.32;;;21.60;94.10;;;;;;5048228;28;20052;-38
2023/05/30 09:30:56;;;;;;;8.38;7.05;;;21.70;94.50;;;;;;5044264;28;20042;-40
2023/05/30 09:33:47;;;;;;;12.07;7.82;;;21.80;93.70;;;;;;5050538;28;20415;-40
2023/05/30 09:36:19;;;;;;;8.30;7.05;;;21.90;93.60;;;;;;5030822;28;20604;-40
2023/05/30 09:38:56;;;;;;;;;;;21.70;93.80;;;;;;5052892;28;20051;-35
2023/05/30 09:41:25;;;;;;;13.05;7.63;;;21.70;93.90;;;;;;5054427;28;19982;-38
2023/05/30 09:43:54;;;;;;;8.57;7.70;;;21.90;93.90;;;;;;5039994;28;20041;-41
2023/05/30 09:46:29;;;;;;;11.52;7.63;;;22.10;93.50;;;;;;5051643;28;20065;-38
2023/05/30 09:48:57;;;;;;;8.30;7.38;;;22.40;93.00;;;;;;5044846;28;20040;-38
2023/05/30 09:51:25;;;;;;;12.27;7.57;;;22.60;92.90;;;;;;5041619;28;20413;-38
2023/05/30 09:54:00;;;;;;;8.63;7.53;;;22.70;92.50;;;;;;5040916;28;20049;-40
2023/05/30 09:56:41;;;;;;;12.13;9.65;;;23.10;92.20;;;;;;5040052;28;20090;-41
2023/05/30 09:59:13;;;;;;;11.02;7.93;;;23.50;92.10;;;;;;5041400;28;20048;-39
2023/05/30 10:01:42;;;;;;;11.32;8.15;;;23.80;91.60;;;;;;5036012;28;20073;-41
2023/05/30 10:04:15;;;;;;;10.00;7.32;;;24.20;91.30;;;;;;5053549;28;20049;-38
2023/05/30 10:06:45;;;;;;;9.82;7.68;;;24.40;90.20;;;;;;5040169;28;20084;-40
2023/05/30 10:09:13;;;;;;;11.65;7.72;;;24.60;89.70;;;;;;5034787;28;20057;-42
2023/05/30 10:11:42;;;;;;;10.32;8.27;;;24.90;89.00;;;;;;5062639;28;20064;-41
2023/05/30 10:14:11;;;;;;;9.38;7.60;;;25.30;88.10;;;;;;5047826;28;20049;-40
2023/05/30 10:16:53;;;;;;;8.70;7.57;;;25.50;87.80;;;;;;5049998;28;20452;-38
2023/05/30 10:19:48;;;;;;;8.98;7.22;;;25.60;86.60;;;;;;5040849;28;20495;-40
2023/05/30 10:22:17;;;;;;;11.85;7.85;;;26.00;84.90;;;;;;5041506;28;20076;-35
2023/05/30 10:24:47;;;;;;;10.50;7.68;;;26.20;83.70;;;;;;5037913;28;20065;-42
2023/05/30 10:27:27;;;;;;;9.57;7.00;;;26.20;83.70;;;;;;5047567;28;20142;-39
2023/05/30 10:30:15;;;;;;;11.75;8.45;;;25.50;83.00;;;;;;5036329;28;20103;-40
2023/05/30 10:32:47;;;;;;;8.98;7.68;;;25.80;81.10;;;;;;5039945;28;20481;-36
2023/05/30 10:35:16;;;;;;;8.10;7.30;;;25.80;82.90;;;;;;5054539;28;20110;-39
2023/05/30 10:37:46;;;;;;;12.07;8.00;;;25.90;82.00;;;;;;5069070;28;20048;-40
2023/05/30 10:40:57;;;;;;;9.57;7.70;;;26.40;81.90;;;;;;5046287;28;20041;-40
2023/05/30 10:43:37;;;;;;;10.20;7.60;;;26.60;80.80;;;;;;5048366;28;20045;-41
2023/05/30 10:46:35;;;;;;;8.60;7.38;;;27.00;79.20;;;;;;5055452;28;20155;-39
2023/05/30 10:49:06;;;;;;;10.43;7.47;;;27.20;76.90;;;;;;5054979;28;20041;-40
2023/05/30 10:52:03;;;;;;;12.23;10.77;;;27.40;77.00;;;;;;5030655;28;20084;-38
2023/05/30 10:54:33;;;;;;;11.15;7.97;;;27.40;76.00;;;;;;5029611;28;20044;-41
2023/05/30 10:57:31;;;;;;;11.05;8.00;;;27.40;75.60;;;;;;5046022;28;20045;-39
2023/05/30 11:00:17;;;;;;;13.07;7.25;;;26.80;76.60;;;;;;5031845;28;20145;-39
2023/05/30 11:02:51;;;;;;;10.20;7.93;;;26.70;77.20;;;;;;5035710;28;20107;-38
2023/05/30 11:05:33;;;;;;;12.43;7.68;;;26.90;75.30;;;;;;5040961;28;20504;-38
2023/05/30 11:08:01;;;;;;;;;;;27.00;75.60;;;;;;5043137;28;20520;-40
2023/05/30 11:10:29;;;;;;;8.07;7.25;;;27.30;74.40;;;;;;5049635;28;20355;-37
2023/05/30 11:13:10;;;;;;;8.88;7.57;;;27.60;73.40;;;;;;5033345;28;20033;-39
2023/05/30 11:15:45;;;;;;;8.53;7.30;;;27.80;72.70;;;;;;5035862;28;20103;-38
2023/05/30 11:18:18;;;;;;;10.57;7.38;;;28.00;72.40;;;;;;5042713;28;20300;-38
2023/05/30 11:20:50;;;;;;;;;;;27.20;71.70;;;;;;5050960;28;20033;-38
2023/05/30 11:23:18;;;;;;;8.95;7.25;;;27.10;71.40;;;;;;5032038;28;20020;-38
2023/05/30 11:25:46;;;;;;;13.43;7.55;;;27.20;70.90;;;;;;5035889;28;20447;-37
2023/05/30 11:28:16;;;;;;;8.27;7.22;;;27.20;70.50;;;;;;5047413;28;20117;-39
2023/05/30 11:30:46;;;;;;;9.73;7.40;;;26.80;69.20;;;;;;5044535;28;20426;-36
2023/05/30 11:33:17;;;;;;;8.93;6.97;;;27.00;69.60;;;;;;5059623;28;20120;-40
2023/05/30 11:35:48;;;;;;;7.57;6.78;;;27.40;69.30;;;;;;5057805;28;20098;-38
2023/05/30 11:38:21;;;;;;;8.73;7.43;;;27.60;68.00;;;;;;5047282;28;20073;-37
2023/05/30 11:40:50;;;;;;;9.27;7.25;;;27.70;67.90;;;;;;5054072;28;20099;-39
2023/05/30 11:43:18;;;;;;;8.00;6.68;;;27.00;68.80;;;;;;5042840;28;20495;-39
2023/05/30 11:45:50;;;;;;;8.23;7.13;;;27.30;67.90;;;;;;5048449;28;20045;-40
2023/05/30 11:48:18;;;;;;;10.90;7.55;;;27.80;67.10;;;;;;5041808;28;20045;-38
2023/05/30 11:50:46;;;;;;;10.63;8.20;;;28.00;67.30;;;;;;5047435;28;20064;-35
2023/05/30 11:53:16;;;;;;;8.43;7.10;;;28.70;66.80;;;;;;5038056;28;20140;-39
2023/05/30 11:55:47;;;;;;;13.30;7.53;;;28.70;65.60;;;;;;5054603;28;20410;-39
2023/05/30 11:58:15;;;;;;;7.80;7.00;;;28.90;64.90;;;;;;5053580;28;20056;-39
2023/05/30 12:00:43;;;;;;;8.18;7.03;;;29.20;64.60;;;;;;5055086;28;20060;-39
2023/05/30 12:03:16;;;;;;;13.57;9.52;;;29.60;63.10;;;;;;5042536;28;20569;-39
2023/05/30 12:05:46;;;;;;;19.95;11.98;;;29.50;62.20;;;;;;5047698;28;20029;-39
2023/05/30 12:08:16;;;;;;;8.70;7.30;;;29.20;62.40;;;;;;5054375;28;20052;-40
2023/05/30 12:10:45;;;;;;;11.55;7.40;;;29.40;61.30;;;;;;5057115;28;20129;-37
2023/05/30 12:13:12;;;;;;;10.38;7.68;;;29.80;61.60;;;;;;5049045;28;20444;-42
2023/05/30 12:15:39;;;;;;;10.73;6.75;;;30.00;60.60;;;;;;5051437;28;20049;-41
2023/05/30 12:18:08;;;;;;;8.90;6.70;;;29.50;60.70;;;;;;5051403;28;20056;-39
2023/05/30 12:20:43;;;;;;;8.60;7.35;;;30.00;61.10;;;;;;5050219;28;20107;-38
2023/05/30 12:23:11;;;;;;;10.15;7.15;;;30.10;59.90;;;;;;5041792;28;20041;-39
2023/05/30 12:25:39;;;;;;;9.85;6.38;;;30.20;59.60;;;;;;5046848;28;20045;-40
2023/05/30 12:28:12;;;;;;;11.23;7.22;;;31.10;58.50;;;;;;5048658;28;20539;-40
2023/05/30 12:30:42;;;;;;;13.93;6.63;;;31.50;57.80;;;;;;5046379;28;20036;-38
2023/05/30 12:33:15;;;;;;;8.30;6.47;;;31.70;57.70;;;;;;5045849;28;20083;-40
2023/05/30 12:35:43;;;;;;;9.18;6.82;;;32.20;57.30;;;;;;5054319;28;20421;-40
2023/05/30 12:38:18;;;;;;;10.18;6.72;;;32.60;56.40;;;;;;5056003;28;20049;-37
2023/05/30 12:40:47;;;;;;;10.38;7.63;;;32.90;55.20;;;;;;5048061;28;20071;-38
2023/05/30 12:43:15;;;;;;;9.40;8.15;;;32.30;55.10;;;;;;5034305;28;20092;-40
2023/05/30 12:45:44;;;;;;;8.70;6.93;;;32.00;55.10;;;;;;5067971;28;20070;-39
2023/05/30 12:48:12;;;;;;;8.00;7.20;;;31.80;55.70;;;;;;5047326;28;20535;-42
2023/05/30 12:50:40;;;;;;;9.07;6.88;;;32.40;55.30;;;;;;5052898;28;20456;-39
2023/05/30 12:53:08;;;;;;;9.80;7.95;;;33.10;54.10;;;;;;5041797;28;20065;-43
2023/05/30 12:55:35;;;;;;;8.65;7.30;;;32.30;53.40;;;;;;5041626;28;20125;-41
2023/05/30 12:58:03;;;;;;;12.50;7.90;;;32.00;53.90;;;;;;5047356;28;20565;-42
2023/05/30 13:00:31;;;;;;;11.32;7.53;;;31.30;54.40;;;;;;5041042;28;20079;-42
2023/05/30 13:03:02;;;;;;;8.73;7.85;;;31.20;54.20;;;;;;5049739;22;20049;-42
2023/05/30 13:05:30;;;;;;;8.73;7.50;;;31.50;53.70;;;;;;5042181;28;20078;-46
2023/05/30 13:07:57;;;;;;;8.35;6.75;;;32.00;53.00;;;;;;5040658;28;20045;-43
2023/05/30 13:10:24;;;;;;;7.82;7.03;;;32.60;52.70;;;;;;5049942;28;20128;-44
2023/05/30 13:12:52;;;;;;;7.70;6.97;;;33.40;51.40;;;;;;5050133;28;20041;-44
2023/05/30 13:15:19;;;;;;;8.32;6.88;;;33.60;51.10;;;;;;5051479;28;20140;-43
2023/05/30 13:17:46;;;;;;;8.15;7.30;;;34.40;50.30;;;;;;5045715;28;20041;-43
2023/05/30 13:20:14;;;;;;;8.90;7.05;;;34.60;48.90;;;;;;5048065;28;20361;-45
2023/05/30 13:22:41;;;;;;;8.63;7.72;;;34.70;48.30;;;;;;5045213;28;20046;-44
2023/05/30 13:25:09;;;;;;;8.68;7.35;;;35.10;48.10;;;;;;5038110;28;20045;-44